createdAt,value
2018-07-30T00:00:02.223Z,58.21
2018-07-30T00:02:38.043Z,58.19
2018-07-30T00:07:16.085Z,57.03
2018-07-30T00:09:45.621Z,57.47
2018-07-30T00:12:15.068Z,58.39
2018-07-30T00:14:44.462Z,58.20
2018-07-30T00:17:13.131Z,58.36
2018-07-30T00:19:42.294Z,58.75
2018-07-30T00:22:12.381Z,58.00
2018-07-30T00:24:42.210Z,58.01
2018-07-30T00:27:11.903Z,58.95
2018-07-30T00:29:41.154Z,58.25
2018-07-30T00:32:15.321Z,59.00
2018-07-30T00:34:47.028Z,57.64
2018-07-30T00:37:15.982Z,58.47
2018-07-30T00:39:44.682Z,58.90
2018-07-30T00:42:13.809Z,59.53
2018-07-30T00:44:42.946Z,58.85
2018-07-30T00:47:11.488Z,59.41
2018-07-30T00:49:40.645Z,59.28
2018-07-30T00:52:09.076Z,59.05
2018-07-30T00:54:38.013Z,59.91
2018-07-30T00:57:06.716Z,58.93
2018-07-30T00:59:40.788Z,59.73
2018-07-30T01:02:11.298Z,59.00
2018-07-30T01:04:40.705Z,58.66
2018-07-30T01:07:09.464Z,58.97
2018-07-30T01:09:38.189Z,58.59
2018-07-30T01:12:06.749Z,59.25
2018-07-30T01:14:35.408Z,58.65
2018-07-30T01:17:10.181Z,60.07
2018-07-30T01:19:39.245Z,58.91
2018-07-30T01:22:12.332Z,59.41
2018-07-30T01:24:43.036Z,58.60
2018-07-30T01:27:12.667Z,58.57
2018-07-30T01:29:43.618Z,58.56
2018-07-30T01:32:16.122Z,59.17
2018-07-30T01:34:45.292Z,59.66
2018-07-30T01:37:16.727Z,59.83
2018-07-30T01:39:47.369Z,59.27
2018-07-30T01:42:16.612Z,60.17
2018-07-30T01:44:46.199Z,59.88
2018-07-30T01:47:14.725Z,59.75
2018-07-30T01:49:43.260Z,58.61
2018-07-30T01:52:13.000Z,59.66
2018-07-30T01:54:42.103Z,59.31
2018-07-30T01:57:14.236Z,59.26
2018-07-30T01:59:42.818Z,59.20
2018-07-30T02:02:11.930Z,58.00
2018-07-30T02:04:40.563Z,57.83
2018-07-30T02:07:08.982Z,58.31
2018-07-30T02:09:37.461Z,58.88
2018-07-30T02:12:06.077Z,57.99
2018-07-30T02:14:35.178Z,57.68
2018-07-30T02:17:06.830Z,57.76
2018-07-30T02:19:35.607Z,57.01
2018-07-30T02:22:05.182Z,57.84
2018-07-30T02:24:33.973Z,57.57
2018-07-30T02:27:02.391Z,56.81
2018-07-30T02:29:33.966Z,57.48
2018-07-30T02:32:05.723Z,57.10
2018-07-30T02:34:57.846Z,57.89
2018-07-30T02:40:10.199Z,58.11
2018-07-30T02:42:39.900Z,57.98
2018-07-30T02:45:08.736Z,57.43
2018-07-30T02:47:51.393Z,57.34
2018-07-30T02:50:20.169Z,58.32
2018-07-30T02:52:48.570Z,58.24
2018-07-30T02:55:17.116Z,57.30
2018-07-30T02:57:46.016Z,57.34
2018-07-30T03:00:14.620Z,56.99
2018-07-30T03:02:43.163Z,57.66
2018-07-30T03:05:11.776Z,56.76
2018-07-30T03:07:40.452Z,57.54
2018-07-30T03:10:08.933Z,56.91
2018-07-30T03:12:37.481Z,56.91
2018-07-30T03:15:05.973Z,57.05
2018-07-30T03:17:34.651Z,57.91
2018-07-30T03:20:03.143Z,58.15
2018-07-30T03:22:32.200Z,58.03
2018-07-30T03:25:01.738Z,58.58
2018-07-30T03:27:30.218Z,57.97
2018-07-30T03:29:58.657Z,58.43
2018-07-30T03:32:27.129Z,58.76
2018-07-30T03:34:55.569Z,59.62
2018-07-30T03:37:24.076Z,59.30
2018-07-30T03:39:52.662Z,58.76
2018-07-30T03:42:21.273Z,59.23
2018-07-30T03:44:49.720Z,59.27
2018-07-30T03:47:18.311Z,59.28
2018-07-30T03:49:46.893Z,60.29
2018-07-30T03:52:16.185Z,60.54
2018-07-30T03:54:45.157Z,58.95
2018-07-30T03:57:14.240Z,60.12
2018-07-30T03:59:42.785Z,59.99
2018-07-30T04:02:13.995Z,59.03
2018-07-30T04:04:42.577Z,59.68
2018-07-30T04:07:11.905Z,59.80
2018-07-30T04:09:41.374Z,59.42
2018-07-30T04:12:11.109Z,60.17
2018-07-30T04:14:41.164Z,59.79
2018-07-30T04:17:12.220Z,60.45
2018-07-30T04:19:42.219Z,60.29
2018-07-30T04:22:10.730Z,59.77
2018-07-30T04:24:39.761Z,58.71
2018-07-30T04:27:08.302Z,60.03
2018-07-30T04:29:36.840Z,58.88
2018-07-30T04:32:05.937Z,58.76
2018-07-30T04:34:34.607Z,60.53
2018-07-30T04:37:04.250Z,58.30
2018-07-30T04:39:33.011Z,59.18
2018-07-30T04:42:01.990Z,58.59
2018-07-30T04:44:30.465Z,58.90
2018-07-30T04:47:00.511Z,56.89
2018-07-30T04:49:29.530Z,56.97
2018-07-30T04:51:58.053Z,56.88
2018-07-30T04:54:28.306Z,57.32
2018-07-30T04:56:56.797Z,57.48
2018-07-30T04:59:25.449Z,56.42
2018-07-30T05:01:54.598Z,56.97
2018-07-30T05:04:23.048Z,56.66
2018-07-30T05:06:52.988Z,57.22
2018-07-30T05:09:22.258Z,56.57
2018-07-30T05:11:50.760Z,56.59
2018-07-30T05:14:20.107Z,56.63
2018-07-30T05:16:48.619Z,57.57
2018-07-30T05:19:17.204Z,56.92
2018-07-30T05:21:46.502Z,57.12
2018-07-30T05:24:15.570Z,56.73
2018-07-30T05:26:44.186Z,57.21
2018-07-30T05:29:12.711Z,56.95
2018-07-30T05:31:41.903Z,57.08
2018-07-30T05:34:10.356Z,57.60
2018-07-30T05:36:39.164Z,57.89
2018-07-30T05:39:09.414Z,56.90
2018-07-30T05:41:37.929Z,57.14
2018-07-30T05:44:07.218Z,57.47
2018-07-30T05:46:35.780Z,57.29
2018-07-30T05:49:04.491Z,56.86
2018-07-30T05:51:32.913Z,56.67
2018-07-30T05:54:02.786Z,55.63
2018-07-30T05:56:31.443Z,56.64
2018-07-30T05:58:59.950Z,54.86
2018-07-30T06:01:28.863Z,54.56
2018-07-30T06:03:57.438Z,53.97
2018-07-30T06:06:25.860Z,55.15
2018-07-30T06:08:54.917Z,54.74
2018-07-30T06:11:23.936Z,53.87
2018-07-30T06:13:52.497Z,53.59
2018-07-30T06:16:21.215Z,53.41
2018-07-30T06:18:50.549Z,53.02
2018-07-30T06:21:19.860Z,53.53
2018-07-30T06:23:48.398Z,53.12
2018-07-30T06:26:16.853Z,52.65
2018-07-30T06:28:45.630Z,51.75
2018-07-30T06:31:14.935Z,50.36
2018-07-30T06:33:43.461Z,50.98
2018-07-30T06:36:12.898Z,50.04
2018-07-30T06:38:42.421Z,49.52
2018-07-30T06:41:10.811Z,50.85
2018-07-30T06:43:39.275Z,50.79
2018-07-30T06:46:08.602Z,52.28
2018-07-30T06:48:37.162Z,50.31
2018-07-30T06:51:06.003Z,51.46
2018-07-30T06:53:34.450Z,51.58
2018-07-30T06:56:03.136Z,51.87
2018-07-30T06:58:32.236Z,51.31
2018-07-30T07:01:00.874Z,50.62
2018-07-30T07:03:29.415Z,49.29
2018-07-30T07:05:58.487Z,50.88
2018-07-30T07:08:26.868Z,50.07
2018-07-30T07:10:55.575Z,49.68
2018-07-30T07:13:23.938Z,48.63
2018-07-30T07:15:52.789Z,49.42
2018-07-30T07:18:21.922Z,49.38
2018-07-30T07:20:51.288Z,48.88
2018-07-30T07:23:20.347Z,48.95
2018-07-30T07:25:48.923Z,47.83
2018-07-30T07:28:17.995Z,47.31
2018-07-30T07:30:47.326Z,47.86
2018-07-30T07:33:16.690Z,45.18
2018-07-30T07:35:45.655Z,45.32
2018-07-30T07:38:15.681Z,44.62
2018-07-30T07:40:46.203Z,44.08
2018-07-30T07:43:15.448Z,43.88
2018-07-30T07:45:44.038Z,42.52
2018-07-30T07:48:13.988Z,42.36
2018-07-30T07:50:43.021Z,43.04
2018-07-30T07:53:12.511Z,42.05
2018-07-30T07:55:42.157Z,42.86
2018-07-30T07:58:12.188Z,41.69
2018-07-30T08:00:40.949Z,41.39
2018-07-30T08:03:09.978Z,41.47
2018-07-30T08:05:38.531Z,40.53
2018-07-30T08:08:07.526Z,40.73
2018-07-30T08:10:36.552Z,41.59
2018-07-30T08:13:06.433Z,40.96
2018-07-30T08:15:36.026Z,39.80
2018-07-30T08:18:05.326Z,39.70
2018-07-30T08:20:36.458Z,39.62
2018-07-30T08:23:05.762Z,39.50
2018-07-30T08:25:34.598Z,38.85
2018-07-30T08:28:03.686Z,37.52
2018-07-30T08:30:32.164Z,37.98
2018-07-30T08:33:00.728Z,38.08
2018-07-30T08:35:29.819Z,37.81
2018-07-30T08:37:58.328Z,37.34
2018-07-30T08:40:27.973Z,37.63
2018-07-30T08:42:56.558Z,36.83
2018-07-30T08:45:25.939Z,36.82
2018-07-30T08:47:56.304Z,36.48
2018-07-30T08:50:25.545Z,36.69
2018-07-30T08:52:55.336Z,35.95
2018-07-30T08:55:24.410Z,35.91
2018-07-30T08:57:53.835Z,36.67
2018-07-30T09:00:22.758Z,36.37
2018-07-30T09:02:51.712Z,35.48
2018-07-30T09:06:22.932Z,35.94
2018-07-30T09:08:52.685Z,37.08
2018-07-30T09:11:21.150Z,35.40
2018-07-30T09:13:51.135Z,35.80
2018-07-30T09:16:19.934Z,35.65
2018-07-30T09:18:48.980Z,35.15
2018-07-30T09:21:18.125Z,35.69
2018-07-30T09:23:47.624Z,35.21
2018-07-30T09:26:16.297Z,35.01
2018-07-30T09:28:45.744Z,34.92
2018-07-30T09:31:16.237Z,34.58
2018-07-30T09:33:45.446Z,35.73
2018-07-30T09:36:16.634Z,37.01
2018-07-30T09:38:46.639Z,37.07
2018-07-30T09:41:15.071Z,36.63
2018-07-30T09:43:43.484Z,35.66
2018-07-30T09:46:12.862Z,35.37
2018-07-30T09:48:41.755Z,35.20
2018-07-30T09:51:10.715Z,34.23
2018-07-30T09:53:39.342Z,33.75
2018-07-30T09:56:13.959Z,33.83
2018-07-30T09:58:43.171Z,33.49
2018-07-30T10:01:16.879Z,34.09
2018-07-30T10:03:45.562Z,33.45
2018-07-30T10:06:14.065Z,34.11
2018-07-30T10:08:43.478Z,33.89
2018-07-30T10:11:11.957Z,34.17
2018-07-30T10:13:40.808Z,33.72
2018-07-30T10:16:09.670Z,34.67
2018-07-30T10:18:38.157Z,33.32
2018-07-30T10:21:07.328Z,34.02
2018-07-30T10:23:35.833Z,33.70
2018-07-30T10:26:04.414Z,34.14
2018-07-30T10:28:33.015Z,34.10
2018-07-30T10:31:01.785Z,34.27
2018-07-30T10:33:30.445Z,32.79
2018-07-30T10:36:00.126Z,33.66
2018-07-30T10:38:31.249Z,33.58
2018-07-30T10:40:59.820Z,32.77
2018-07-30T10:43:30.141Z,33.18
2018-07-30T10:45:59.937Z,33.40
2018-07-30T10:48:30.304Z,32.80
2018-07-30T10:51:00.016Z,33.64
2018-07-30T10:53:30.157Z,32.82
2018-07-30T10:55:58.713Z,33.76
2018-07-30T10:58:27.312Z,32.90
2018-07-30T11:00:57.428Z,33.64
2018-07-30T11:03:27.180Z,33.16
2018-07-30T11:05:55.679Z,32.97
2018-07-30T11:08:25.015Z,32.32
2018-07-30T11:10:55.984Z,33.72
2018-07-30T11:13:25.942Z,32.81
2018-07-30T11:15:55.101Z,33.66
2018-07-30T11:18:23.639Z,32.96
2018-07-30T11:20:52.740Z,33.28
2018-07-30T11:23:22.711Z,33.03
2018-07-30T11:25:52.605Z,32.89
2018-07-30T11:28:21.641Z,32.91
2018-07-30T11:30:50.455Z,33.04
2018-07-30T11:33:19.325Z,32.89
2018-07-30T11:35:48.426Z,32.41
2018-07-30T11:38:17.976Z,32.20
2018-07-30T11:40:46.531Z,32.25
2018-07-30T11:43:15.107Z,33.06
2018-07-30T11:45:45.898Z,33.55
2018-07-30T11:48:15.087Z,32.72
2018-07-30T11:50:44.475Z,33.17
2018-07-30T11:53:13.805Z,32.64
2018-07-30T11:55:42.956Z,32.89
2018-07-30T11:58:11.430Z,33.76
2018-07-30T12:00:40.440Z,32.62
2018-07-30T12:03:09.444Z,31.04
2018-07-30T12:05:38.510Z,31.30
2018-07-30T12:08:09.402Z,32.04
2018-07-30T12:10:40.461Z,31.42
2018-07-30T12:13:09.026Z,32.25
2018-07-30T12:15:37.573Z,31.40
2018-07-30T12:18:06.709Z,31.60
2018-07-30T12:20:35.265Z,32.39
2018-07-30T12:23:04.560Z,32.21
2018-07-30T12:25:33.890Z,32.55
2018-07-30T12:28:04.009Z,30.75
2018-07-30T12:30:32.614Z,31.81
2018-07-30T12:33:01.826Z,31.12
2018-07-30T12:35:30.787Z,31.01
2018-07-30T12:37:59.388Z,31.25
2018-07-30T12:40:32.099Z,29.91
2018-07-30T12:43:02.397Z,30.62
2018-07-30T12:52:22.405Z,29.55
2018-07-30T12:54:51.286Z,31.55
2018-07-30T12:57:20.141Z,28.64
2018-07-30T12:59:48.847Z,28.42
2018-07-30T13:02:19.433Z,28.81
2018-07-30T13:04:49.746Z,29.08
2018-07-30T13:07:18.850Z,29.36
2018-07-30T13:09:47.370Z,28.84
2018-07-30T13:12:16.913Z,28.54
2018-07-30T13:14:45.501Z,31.43
2018-07-30T13:17:15.175Z,30.55
2018-07-30T13:19:45.537Z,29.79
2018-07-30T13:22:14.737Z,28.55
2018-07-30T13:24:47.165Z,29.42
2018-07-30T13:27:15.677Z,28.74
2018-07-30T13:29:44.205Z,28.11
2018-07-30T13:32:12.786Z,28.75
2018-07-30T13:34:41.431Z,28.67
2018-07-30T13:37:10.465Z,27.64
2018-07-30T13:39:38.895Z,28.61
2018-07-30T13:42:08.751Z,28.07
2018-07-30T13:44:37.365Z,28.87
2018-07-30T13:47:06.871Z,29.05
2018-07-30T13:49:36.594Z,28.60
2018-07-30T13:52:06.545Z,27.90
2018-07-30T13:54:35.053Z,28.28
2018-07-30T13:57:03.698Z,27.47
2018-07-30T13:59:32.281Z,28.93
2018-07-30T14:02:01.058Z,26.89
2018-07-30T14:04:29.548Z,27.48
2018-07-30T14:07:00.116Z,27.39
2018-07-30T14:09:28.989Z,28.32
2018-07-30T14:11:57.440Z,29.48
2018-07-30T14:14:26.050Z,28.79
2018-07-30T14:16:54.655Z,29.15
2018-07-30T14:19:23.286Z,28.52
2018-07-30T14:21:52.231Z,29.90
2018-07-30T14:24:21.277Z,29.22
2018-07-30T14:26:50.785Z,28.34
2018-07-30T14:29:19.339Z,28.11
2018-07-30T14:31:48.469Z,27.05
2018-07-30T14:34:18.271Z,27.25
2018-07-30T14:36:47.032Z,27.36
2018-07-30T14:39:16.031Z,29.25
2018-07-30T14:41:44.481Z,30.66
2018-07-30T14:44:13.218Z,30.50
2018-07-30T14:46:42.579Z,29.82
2018-07-30T14:49:11.607Z,30.40
2018-07-30T14:51:40.466Z,30.82
2018-07-30T14:54:09.639Z,30.89
2018-07-30T14:56:38.932Z,28.25
2018-07-30T14:59:07.576Z,29.07
2018-07-30T15:01:36.659Z,27.56
2018-07-30T15:04:07.973Z,28.82
2018-07-30T15:06:38.029Z,26.93
2018-07-30T15:09:11.783Z,27.53
2018-07-30T15:11:41.099Z,27.22
2018-07-30T15:14:12.748Z,27.36
2018-07-30T15:16:43.057Z,26.58
2018-07-30T15:19:13.451Z,27.02
2018-07-30T15:21:43.124Z,28.90
2018-07-30T15:29:26.084Z,27.33
2018-07-30T15:31:58.525Z,28.26
2018-07-30T15:34:31.848Z,28.49
2018-07-30T15:37:01.947Z,28.22
2018-07-30T15:39:30.969Z,26.46
2018-07-30T15:42:05.702Z,26.87
2018-07-30T15:44:43.929Z,25.66
2018-07-30T15:47:14.516Z,27.58
2018-07-30T15:49:44.934Z,27.15
2018-07-30T15:52:14.577Z,27.02
2018-07-30T15:54:43.321Z,27.26
2018-07-30T15:57:14.717Z,26.81
2018-07-30T15:59:45.563Z,29.37
2018-07-30T16:02:14.717Z,28.62
2018-07-30T16:04:44.025Z,28.53
2018-07-30T16:07:14.621Z,28.22
2018-07-30T16:09:45.087Z,28.29
2018-07-30T16:12:14.699Z,29.40
2018-07-30T16:14:44.633Z,30.37
2018-07-30T16:17:14.847Z,30.33
2018-07-30T16:19:47.133Z,28.88
2018-07-30T16:22:18.611Z,27.82
2018-07-30T16:24:49.280Z,26.54
2018-07-30T16:27:20.622Z,27.73
2018-07-30T16:29:51.399Z,27.61
2018-07-30T16:32:20.252Z,27.76
2018-07-30T16:34:51.081Z,26.87
2018-07-30T16:37:24.183Z,27.25
2018-07-30T16:39:56.086Z,27.12
2018-07-30T16:42:25.611Z,27.86
2018-07-30T16:44:56.014Z,28.32
2018-07-30T16:47:24.662Z,28.30
2018-07-30T16:49:55.817Z,29.75
2018-07-30T16:52:24.540Z,28.40
2018-07-30T16:54:53.292Z,29.72
2018-07-30T16:57:26.842Z,29.20
2018-07-30T16:59:56.412Z,29.83
2018-07-30T17:02:25.457Z,30.02
2018-07-30T17:04:55.768Z,29.37
2018-07-30T17:07:25.776Z,29.57
2018-07-30T17:09:57.516Z,29.81
2018-07-30T17:12:26.840Z,30.51
2018-07-30T17:14:57.213Z,30.68
2018-07-30T17:17:26.694Z,30.64
2018-07-30T17:19:57.639Z,32.20
2018-07-30T17:22:26.426Z,32.50
2018-07-30T17:24:58.863Z,31.47
2018-07-30T17:27:28.259Z,31.45
2018-07-30T17:29:58.839Z,32.23
2018-07-30T17:32:30.817Z,32.77
2018-07-30T17:35:01.333Z,32.91
2018-07-30T17:37:31.283Z,33.13
2018-07-30T17:40:06.316Z,33.06
2018-07-30T17:42:36.161Z,32.70
2018-07-30T17:45:05.886Z,32.76
2018-07-30T17:47:34.845Z,32.35
2018-07-30T17:51:33.079Z,33.46
2018-07-30T17:54:02.718Z,33.95
2018-07-30T17:56:34.356Z,34.04
2018-07-30T17:59:07.095Z,33.53
2018-07-30T18:01:37.708Z,33.36
2018-07-30T18:10:55.170Z,33.93
2018-07-30T18:13:25.312Z,34.27
2018-07-30T18:15:54.994Z,34.55
2018-07-30T18:18:33.472Z,34.65
2018-07-30T18:21:02.400Z,36.37
2018-07-30T18:23:32.131Z,35.92
2018-07-30T18:26:03.197Z,35.85
2018-07-30T18:28:33.164Z,35.63
2018-07-30T18:31:03.790Z,35.97
2018-07-30T18:33:34.357Z,37.18
2018-07-30T18:36:04.669Z,37.83
2018-07-30T18:38:34.165Z,36.83
2018-07-30T18:41:04.234Z,37.64
2018-07-30T18:43:33.494Z,37.55
2018-07-30T18:46:03.419Z,37.98
2018-07-30T18:48:32.213Z,38.42
2018-07-30T18:51:02.874Z,38.33
2018-07-30T18:53:32.315Z,38.29
2018-07-30T18:56:02.302Z,38.66
2018-07-30T18:58:31.251Z,38.71
2018-07-30T19:01:00.816Z,39.38
2018-07-30T19:03:29.547Z,38.76
2018-07-30T19:06:00.375Z,39.25
2018-07-30T19:08:29.226Z,39.95
2018-07-30T19:10:59.400Z,39.47
2018-07-30T19:13:29.295Z,38.77
2018-07-30T19:15:59.244Z,39.41
2018-07-30T19:18:29.952Z,40.03
2018-07-30T19:20:59.420Z,41.22
2018-07-30T19:23:28.281Z,41.25
2018-07-30T19:25:58.239Z,40.88
2018-07-30T19:28:28.272Z,40.41
2018-07-30T19:30:57.819Z,40.09
2018-07-30T19:33:27.026Z,41.37
2018-07-30T19:35:57.436Z,40.59
2018-07-30T19:38:26.447Z,40.94
2018-07-30T19:40:56.572Z,40.76
2018-07-30T19:43:25.889Z,40.54
2018-07-30T19:45:55.202Z,39.52
2018-07-30T19:48:24.782Z,40.19
2018-07-30T19:50:54.893Z,41.54
2018-07-30T19:53:25.603Z,42.28
2018-07-30T19:55:54.217Z,40.47
2018-07-30T19:58:25.854Z,42.63
2018-07-30T20:00:59.664Z,42.49
2018-07-30T20:03:32.084Z,42.24
2018-07-30T20:06:00.916Z,42.26
2018-07-30T20:08:29.759Z,42.95
2018-07-30T20:10:59.123Z,42.75
2018-07-30T20:13:30.717Z,41.92
2018-07-30T20:16:00.667Z,42.94
2018-07-30T20:18:30.458Z,42.75
2018-07-30T20:21:00.256Z,42.50
2018-07-30T20:23:29.347Z,43.25
2018-07-30T20:25:58.647Z,42.35
2018-07-30T20:28:28.371Z,42.91
2018-07-30T20:30:58.992Z,42.80
2018-07-30T20:33:27.943Z,43.28
2018-07-30T20:35:57.852Z,43.67
2018-07-30T20:38:26.737Z,43.80
2018-07-30T20:40:57.126Z,43.62
2018-07-30T20:43:27.807Z,44.14
2018-07-30T20:45:56.622Z,44.83
2018-07-30T20:48:26.387Z,44.97
2018-07-30T20:50:55.486Z,45.13
2018-07-30T20:53:25.026Z,45.53
2018-07-30T20:55:53.736Z,45.54
2018-07-30T20:58:22.672Z,45.27
2018-07-30T21:00:51.970Z,45.68
2018-07-30T21:03:20.516Z,45.11
2018-07-30T21:05:50.432Z,45.02
2018-07-30T21:08:19.199Z,44.97
2018-07-30T21:10:47.928Z,44.07
2018-07-30T21:13:17.472Z,44.42
2018-07-30T21:15:46.954Z,45.40
2018-07-30T21:18:15.724Z,44.83
2018-07-30T21:20:45.192Z,43.82
2018-07-30T21:23:13.922Z,43.57
2018-07-30T21:25:43.484Z,44.23
2018-07-30T21:28:13.920Z,45.78
2018-07-30T21:30:42.968Z,44.18
2018-07-30T21:33:13.486Z,46.01
2018-07-30T21:35:43.017Z,44.56
2018-07-30T21:38:12.986Z,45.61
2018-07-30T21:40:41.477Z,45.66
2018-07-30T21:43:11.987Z,44.12
2018-07-30T21:45:40.463Z,45.56
2018-07-30T21:48:09.251Z,45.95
2018-07-30T21:50:37.676Z,45.96
2018-07-30T21:53:06.344Z,46.16
2018-07-30T21:55:34.914Z,47.08
2018-07-30T21:58:04.204Z,46.77
2018-07-30T22:00:32.759Z,46.96
2018-07-30T22:03:01.330Z,46.56
2018-07-30T22:05:30.373Z,46.69
2018-07-30T22:07:59.504Z,47.75
2018-07-30T22:10:28.256Z,46.79
2018-07-30T22:12:57.389Z,46.52
2018-07-30T22:15:25.947Z,46.72
2018-07-30T22:17:54.686Z,47.03
2018-07-30T22:20:23.851Z,47.79
2018-07-30T22:22:52.437Z,47.94
2018-07-30T22:25:21.006Z,48.42
2018-07-30T22:27:51.640Z,47.89
2018-07-30T22:30:20.738Z,48.31
2018-07-30T22:32:50.615Z,47.86
2018-07-30T22:35:19.846Z,46.85
2018-07-30T22:37:48.517Z,48.78
2018-07-30T22:40:17.040Z,49.36
2018-07-30T22:42:45.574Z,48.91
2018-07-30T22:45:14.656Z,49.58
2018-07-30T22:47:43.926Z,50.03
2018-07-30T22:50:13.031Z,49.57
2018-07-30T22:52:42.593Z,50.10
2018-07-30T22:55:11.282Z,49.30
2018-07-30T22:57:40.999Z,48.38
2018-07-30T23:00:09.676Z,49.25
2018-07-30T23:02:39.012Z,49.12
2018-07-30T23:05:08.978Z,50.34
2018-07-30T23:07:37.983Z,49.90
2018-07-30T23:10:07.180Z,49.96
2018-07-30T23:12:36.072Z,49.36
2018-07-30T23:15:04.961Z,49.23
2018-07-30T23:17:34.173Z,48.79
2018-07-30T23:20:02.756Z,47.94
2018-07-30T23:22:33.069Z,48.45
2018-07-30T23:25:02.699Z,48.92
2018-07-30T23:27:31.220Z,49.30
2018-07-30T23:30:00.518Z,50.29
2018-07-30T23:32:29.649Z,49.47
2018-07-30T23:34:58.169Z,49.18
2018-07-30T23:37:27.752Z,49.52
2018-07-30T23:39:56.464Z,50.21
2018-07-30T23:42:25.010Z,49.41
2018-07-30T23:44:53.477Z,50.53
2018-07-30T23:47:22.572Z,50.37
2018-07-30T23:49:51.054Z,50.41
2018-07-30T23:52:19.464Z,50.29
2018-07-30T23:54:47.955Z,50.69
2018-07-30T23:57:16.409Z,50.61
2018-07-30T23:59:44.973Z,51.09
